Coningsby, United Kingdom
Current Conditions -  °F | °C
As of 8:50 PM on Thursday 18 Dec 2014 (Local Time) from EGXC Reporting Station
Broken Clouds Broken Clouds  
Wind Chill: 55°   Ceiling: 3000
Heat Index: 55°   Visibility: 6mi
Dew Point: 52°   Wind: 23mph
Humidity: 88%   Direction: 240°WSW
Pressure: 29.62"   Gusts: 38mph
Location:  53.11°N, 0.18°W
Report Text: EGXC 182050Z 24020G33KT 9999 SCT024 BKN030 13/11 Q1003 WHT
Loading
Personal Weather Stations






























Interactive Weather Map New forecast layout! Learn more

10-Day Weather Forecast

Advertisements
Track Severe Weather on mobile